createdAt,value
2019-05-02T00:00:54.067Z,49.21
2019-05-02T00:03:26.981Z,49.27
2019-05-02T00:05:57.969Z,49.38
2019-05-02T00:08:32.923Z,49.45
2019-05-02T00:11:02.100Z,49.44
2019-05-02T00:13:33.910Z,49.43
2019-05-02T00:16:09.194Z,49.47
2019-05-02T00:18:39.072Z,49.51
2019-05-02T00:21:10.398Z,49.64
2019-05-02T00:23:42.450Z,49.69
2019-05-02T00:26:13.676Z,49.77
2019-05-02T00:28:48.034Z,49.90
2019-05-02T00:31:18.967Z,49.98
2019-05-02T00:33:50.033Z,49.87
2019-05-02T00:36:21.007Z,49.74
2019-05-02T00:38:52.035Z,49.79
2019-05-02T00:41:23.006Z,49.73
2019-05-02T00:43:54.004Z,49.78
2019-05-02T00:46:24.980Z,49.83
2019-05-02T00:48:59.827Z,49.85
2019-05-02T00:51:30.283Z,49.83
2019-05-02T00:54:01.285Z,49.94
2019-05-02T00:56:32.256Z,49.93
2019-05-02T00:59:07.364Z,49.98
2019-05-02T01:01:38.454Z,49.78
2019-05-02T01:04:11.176Z,49.80
2019-05-02T01:06:44.636Z,49.93
2019-05-02T01:09:14.884Z,49.84
2019-05-02T01:11:45.875Z,49.87
2019-05-02T01:14:16.850Z,49.90
2019-05-02T01:16:49.467Z,49.90
2019-05-02T01:19:20.504Z,49.98
2019-05-02T01:21:51.481Z,49.90
2019-05-02T01:24:22.629Z,50.01
2019-05-02T01:26:59.912Z,49.97
2019-05-02T01:29:32.307Z,50.06
2019-05-02T01:32:10.903Z,49.94
2019-05-02T01:34:48.921Z,49.76
2019-05-02T01:37:23.517Z,49.73
2019-05-02T01:39:54.497Z,49.80
2019-05-02T01:42:25.479Z,49.70
2019-05-02T01:44:56.452Z,49.86
2019-05-02T01:47:29.140Z,49.73
2019-05-02T01:50:00.376Z,49.91
2019-05-02T01:52:31.655Z,49.90
2019-05-02T01:55:02.627Z,49.92
2019-05-02T01:57:33.896Z,49.90
2019-05-02T02:00:11.189Z,49.93
2019-05-02T02:02:41.831Z,49.95
2019-05-02T02:05:12.802Z,49.88
2019-05-02T02:07:43.782Z,49.77
2019-05-02T02:10:19.352Z,49.66
2019-05-02T02:13:02.880Z,49.70
2019-05-02T02:15:25.184Z,49.70
2019-05-02T02:17:53.968Z,49.80
2019-05-02T02:20:26.586Z,49.84
2019-05-02T02:23:10.221Z,49.92
2019-05-02T02:25:43.646Z,49.91
2019-05-02T02:28:14.639Z,50.00
2019-05-02T02:30:45.896Z,49.99
2019-05-02T02:33:16.870Z,49.98
2019-05-02T02:35:50.409Z,50.04
2019-05-02T02:38:20.523Z,50.11
2019-05-02T02:40:52.236Z,50.07
2019-05-02T02:43:33.869Z,50.10
2019-05-02T02:45:59.636Z,50.17
2019-05-02T02:48:33.866Z,50.20
2019-05-02T02:51:03.732Z,50.12
2019-05-02T02:53:34.735Z,50.20
2019-05-02T02:56:10.661Z,50.00
2019-05-02T02:58:46.022Z,50.05
2019-05-02T03:01:14.343Z,50.09
2019-05-02T03:03:45.311Z,50.11
2019-05-02T03:06:16.290Z,50.15
2019-05-02T03:08:49.167Z,50.18
2019-05-02T03:11:23.538Z,50.23
2019-05-02T03:14:05.543Z,50.18
2019-05-02T03:16:33.429Z,50.09
2019-05-02T03:19:04.416Z,50.15
2019-05-02T03:21:35.461Z,50.12
2019-05-02T03:24:06.456Z,50.15
2019-05-02T03:26:37.431Z,50.11
2019-05-02T03:29:08.416Z,50.10
2019-05-02T03:31:39.406Z,50.06
2019-05-02T03:34:10.386Z,50.02
2019-05-02T03:36:41.362Z,49.98
2019-05-02T03:39:14.743Z,49.96
2019-05-02T03:41:45.116Z,50.08
2019-05-02T03:44:24.681Z,50.13
2019-05-02T03:46:54.241Z,50.20
2019-05-02T03:49:21.608Z,50.21
2019-05-02T03:51:56.075Z,50.25
2019-05-02T03:54:25.305Z,50.34
2019-05-02T03:56:56.287Z,50.35
2019-05-02T03:59:37.544Z,50.41
2019-05-02T04:02:00.007Z,50.38
2019-05-02T04:04:31.014Z,50.42
2019-05-02T04:07:03.416Z,50.41
2019-05-02T04:09:42.419Z,50.42
2019-05-02T04:12:19.074Z,50.41
2019-05-02T04:14:41.886Z,50.45
2019-05-02T04:17:13.238Z,50.52
2019-05-02T04:19:44.228Z,50.52
2019-05-02T04:22:15.874Z,50.55
2019-05-02T04:24:54.572Z,50.53
2019-05-02T04:27:19.576Z,50.54
2019-05-02T04:29:50.616Z,50.61
2019-05-02T04:32:21.623Z,50.68
2019-05-02T04:34:55.810Z,50.67
2019-05-02T04:37:25.907Z,50.69
2019-05-02T04:39:59.131Z,50.71
2019-05-02T04:42:29.621Z,50.77
2019-05-02T04:45:21.256Z,50.71
2019-05-02T04:47:34.160Z,50.75
2019-05-02T04:50:17.528Z,50.79
2019-05-02T04:52:48.228Z,50.75
2019-05-02T04:55:19.735Z,50.84
2019-05-02T04:57:48.017Z,50.94
2019-05-02T05:00:22.356Z,50.96
2019-05-02T05:02:53.707Z,50.97
2019-05-02T05:05:25.985Z,51.04
2019-05-02T05:07:58.640Z,51.04
2019-05-02T05:10:40.156Z,51.08
2019-05-02T05:13:02.408Z,51.12
2019-05-02T05:15:41.114Z,51.12
2019-05-02T05:18:10.417Z,51.11
2019-05-02T05:20:40.517Z,51.16
2019-05-02T05:23:15.738Z,51.17
2019-05-02T05:25:48.293Z,51.23
2019-05-02T05:28:20.247Z,51.32
2019-05-02T05:30:52.209Z,51.41
2019-05-02T05:33:23.362Z,51.36
2019-05-02T05:35:54.708Z,51.37
2019-05-02T05:38:28.560Z,51.33
2019-05-02T05:41:03.101Z,51.38
2019-05-02T05:43:31.194Z,51.47
2019-05-02T05:46:10.644Z,51.46
2019-05-02T05:48:37.133Z,51.51
2019-05-02T05:51:11.825Z,51.58
2019-05-02T05:53:40.267Z,51.62
2019-05-02T05:56:11.244Z,51.68
2019-05-02T05:58:50.496Z,51.70
2019-05-02T06:01:14.920Z,51.70
2019-05-02T06:03:47.373Z,51.78
2019-05-02T06:06:22.925Z,51.80
2019-05-02T06:08:54.191Z,51.84
2019-05-02T06:11:23.993Z,51.92
2019-05-02T06:13:54.971Z,51.95
2019-05-02T06:16:25.945Z,51.99
2019-05-02T06:18:57.078Z,51.98
2019-05-02T06:21:28.046Z,51.98
2019-05-02T06:23:59.032Z,51.97
2019-05-02T06:26:30.088Z,52.01
2019-05-02T06:29:01.196Z,51.97
2019-05-02T06:31:32.266Z,52.04
2019-05-02T06:34:07.043Z,51.99
2019-05-02T06:36:36.937Z,52.04
2019-05-02T06:39:08.756Z,52.09
2019-05-02T06:41:39.740Z,52.11
2019-05-02T06:44:10.909Z,52.14
2019-05-02T06:46:41.973Z,52.12
2019-05-02T06:49:12.943Z,52.08
2019-05-02T06:51:43.947Z,52.13
2019-05-02T06:54:18.070Z,52.15
2019-05-02T06:56:48.250Z,52.23
2019-05-02T06:59:20.334Z,52.26
2019-05-02T07:01:52.372Z,52.28
2019-05-02T07:04:25.068Z,52.32
2019-05-02T07:06:59.299Z,52.30
2019-05-02T07:09:39.862Z,52.33
2019-05-02T07:12:02.155Z,52.35
2019-05-02T07:14:34.113Z,52.37
2019-05-02T07:17:09.451Z,52.42
2019-05-02T07:19:47.541Z,52.34
2019-05-02T07:22:18.512Z,52.33
2019-05-02T07:24:49.569Z,52.38
2019-05-02T07:27:20.551Z,52.40
2019-05-02T07:29:52.054Z,52.46
2019-05-02T07:32:25.344Z,52.44
2019-05-02T07:34:57.004Z,52.41
2019-05-02T07:37:27.989Z,52.41
2019-05-02T07:39:58.975Z,52.46
2019-05-02T07:42:29.946Z,52.53
2019-05-02T07:45:04.456Z,52.57
2019-05-02T07:47:40.308Z,52.62
2019-05-02T07:50:10.321Z,52.71
2019-05-02T07:52:41.415Z,52.67
2019-05-02T07:55:12.579Z,52.77
2019-05-02T07:57:43.586Z,52.80
2019-05-02T08:00:15.005Z,52.75
2019-05-02T08:02:45.997Z,52.78
2019-05-02T08:05:21.485Z,52.78
2019-05-02T08:07:53.478Z,52.77
2019-05-02T08:10:24.110Z,52.70
2019-05-02T08:12:55.048Z,52.82
2019-05-02T08:15:26.021Z,52.92
2019-05-02T08:17:57.017Z,53.02
2019-05-02T08:20:28.022Z,52.99
2019-05-02T08:22:59.029Z,53.08
2019-05-02T08:25:30.009Z,53.09
2019-05-02T08:28:04.697Z,53.11
2019-05-02T08:30:40.507Z,53.10
2019-05-02T08:33:09.644Z,53.25
2019-05-02T08:35:40.619Z,53.38
2019-05-02T08:38:12.493Z,53.34
2019-05-02T08:40:47.743Z,53.36
2019-05-02T08:43:17.317Z,53.38
2019-05-02T08:45:48.374Z,53.34
2019-05-02T08:48:19.352Z,53.38
2019-05-02T08:50:50.360Z,53.43
2019-05-02T08:53:22.270Z,53.47
2019-05-02T08:55:53.779Z,53.43
2019-05-02T08:58:24.796Z,53.39
2019-05-02T09:00:55.769Z,53.38
2019-05-02T09:03:26.742Z,53.36
2019-05-02T09:06:05.633Z,53.35
2019-05-02T09:08:30.398Z,53.31
2019-05-02T09:11:01.486Z,53.38
2019-05-02T09:13:32.997Z,53.36
2019-05-02T09:16:05.944Z,53.42
2019-05-02T09:18:41.053Z,53.42
2019-05-02T09:21:09.528Z,53.42
2019-05-02T09:23:42.006Z,53.38
2019-05-02T09:26:13.680Z,53.35
2019-05-02T09:28:44.917Z,53.38
2019-05-02T09:31:15.898Z,53.46
2019-05-02T09:33:47.058Z,53.49
2019-05-02T09:36:18.139Z,53.48
2019-05-02T09:38:56.009Z,53.44
2019-05-02T09:41:22.228Z,53.45
2019-05-02T09:43:53.824Z,53.46
2019-05-02T09:46:24.815Z,53.52
2019-05-02T09:48:56.999Z,53.51
2019-05-02T09:51:28.931Z,53.62
2019-05-02T09:54:02.708Z,53.55
2019-05-02T09:56:32.643Z,53.62
2019-05-02T09:59:23.256Z,53.51
2019-05-02T10:01:38.077Z,53.56
2019-05-02T10:04:09.057Z,53.71
2019-05-02T10:06:40.037Z,53.73
2019-05-02T10:09:12.091Z,53.60
2019-05-02T10:11:43.230Z,53.54
2019-05-02T10:14:14.276Z,53.61
2019-05-02T10:16:45.262Z,53.62
2019-05-02T10:19:16.245Z,53.56
2019-05-02T10:21:52.429Z,53.58
2019-05-02T10:24:22.220Z,53.68
2019-05-02T10:26:57.085Z,53.68
2019-05-02T10:29:28.317Z,54.20
2019-05-02T10:31:58.843Z,54.01
2019-05-02T10:34:29.839Z,53.91
2019-05-02T10:37:02.832Z,53.92
2019-05-02T10:39:37.778Z,53.80
2019-05-02T10:42:06.649Z,53.77
2019-05-02T10:44:37.630Z,53.65
2019-05-02T10:47:08.608Z,53.58
2019-05-02T10:49:42.646Z,53.58
2019-05-02T10:52:13.686Z,53.42
2019-05-02T10:54:44.660Z,53.49
2019-05-02T10:57:15.654Z,53.50
2019-05-02T10:59:46.687Z,53.50
2019-05-02T11:02:23.420Z,53.43
2019-05-02T11:05:07.753Z,53.45
2019-05-02T11:07:38.753Z,53.46
2019-05-02T11:10:09.992Z,53.46
2019-05-02T11:12:46.850Z,53.56
2019-05-02T11:15:15.390Z,53.59
2019-05-02T11:17:47.656Z,53.77
2019-05-02T11:20:18.622Z,53.71
2019-05-02T11:22:52.066Z,53.50
2019-05-02T11:25:22.586Z,53.47
2019-05-02T11:27:57.368Z,53.42
2019-05-02T11:30:26.758Z,53.50
2019-05-02T11:32:57.735Z,53.42
2019-05-02T11:35:28.749Z,53.41
2019-05-02T11:37:59.720Z,53.25
2019-05-02T11:40:32.127Z,53.10
2019-05-02T11:43:06.780Z,53.05
2019-05-02T11:45:36.044Z,53.06
2019-05-02T11:48:09.355Z,53.16
2019-05-02T11:50:39.719Z,53.24
2019-05-02T11:53:23.206Z,53.25
2019-05-02T11:55:43.872Z,53.27
2019-05-02T11:58:14.934Z,53.47
2019-05-02T12:00:49.612Z,53.12
2019-05-02T12:03:28.156Z,53.33
2019-05-02T12:05:56.881Z,53.15
2019-05-02T12:08:27.858Z,53.11
2019-05-02T12:11:01.274Z,52.94
2019-05-02T12:13:32.307Z,53.01
2019-05-02T12:16:04.958Z,52.83
2019-05-02T12:18:36.410Z,52.65
2019-05-02T12:21:07.386Z,52.11
2019-05-02T12:23:38.434Z,51.98
2019-05-02T12:26:09.427Z,52.02
2019-05-02T12:28:42.772Z,51.85
2019-05-02T12:31:22.142Z,51.60
2019-05-02T12:33:56.144Z,51.61
2019-05-02T12:36:27.111Z,51.29
2019-05-02T12:38:58.100Z,51.16
2019-05-02T12:41:29.077Z,51.08
2019-05-02T12:44:02.076Z,50.66
2019-05-02T12:46:32.723Z,50.60
2019-05-02T12:49:03.743Z,50.58
2019-05-02T12:51:34.725Z,50.32
2019-05-02T12:54:06.061Z,50.40
2019-05-02T12:56:37.044Z,50.32
2019-05-02T12:59:08.045Z,50.32
2019-05-02T13:01:39.112Z,50.03
2019-05-02T13:04:15.927Z,49.95
2019-05-02T13:06:46.948Z,49.88
2019-05-02T13:09:17.954Z,49.74
2019-05-02T13:12:05.402Z,49.85
2019-05-02T13:14:36.645Z,49.88
2019-05-02T13:17:07.623Z,50.02
2019-05-02T13:19:41.528Z,49.96
2019-05-02T13:22:29.060Z,49.82
2019-05-02T13:25:02.369Z,49.88
2019-05-02T13:27:43.295Z,50.16
2019-05-02T13:30:12.285Z,50.17
2019-05-02T13:32:48.148Z,50.16
2019-05-02T13:35:19.011Z,50.17
2019-05-02T13:37:51.778Z,50.06
2019-05-02T13:40:24.488Z,50.05
2019-05-02T13:42:55.462Z,50.03
2019-05-02T13:45:43.144Z,50.18
2019-05-02T13:48:14.258Z,50.26
2019-05-02T13:50:45.261Z,50.17
2019-05-02T13:53:16.239Z,50.22
2019-05-02T13:55:54.611Z,50.43
2019-05-02T13:58:28.923Z,50.52
2019-05-02T14:00:58.378Z,50.45
2019-05-02T14:03:29.342Z,50.58
2019-05-02T14:06:00.341Z,50.54
2019-05-02T14:08:36.796Z,50.81
2019-05-02T14:11:05.430Z,50.90
2019-05-02T14:13:36.877Z,51.07
2019-05-02T14:16:07.861Z,51.22
2019-05-02T14:18:38.839Z,51.40
2019-05-02T14:21:09.904Z,51.44
2019-05-02T14:23:42.030Z,51.50
2019-05-02T14:26:13.061Z,51.62
2019-05-02T14:28:44.870Z,51.70
2019-05-02T14:31:15.849Z,51.81
2019-05-02T14:33:48.503Z,51.91
2019-05-02T14:36:19.475Z,52.13
2019-05-02T14:38:52.509Z,52.37
2019-05-02T14:41:25.259Z,52.47
2019-05-02T14:43:56.234Z,52.68
2019-05-02T14:46:35.371Z,52.76
2019-05-02T14:49:00.079Z,52.86
2019-05-02T14:51:33.090Z,53.05
2019-05-02T14:54:08.279Z,53.22
2019-05-02T14:56:43.498Z,53.20
2019-05-02T14:59:15.281Z,53.28
2019-05-02T15:01:47.018Z,53.23
2019-05-02T15:04:18.143Z,53.33
2019-05-02T15:06:52.306Z,53.39
2019-05-02T15:09:26.891Z,53.43
2019-05-02T15:11:58.329Z,53.44
2019-05-02T15:14:32.643Z,53.45
2019-05-02T15:17:04.501Z,53.49
2019-05-02T15:19:35.487Z,53.58
2019-05-02T15:22:06.535Z,53.49
2019-05-02T15:24:38.091Z,53.58
2019-05-02T15:27:13.306Z,53.63
2019-05-02T15:29:42.180Z,53.62
2019-05-02T15:32:27.784Z,53.76
2019-05-02T15:35:08.678Z,53.77
2019-05-02T15:37:41.637Z,54.20
2019-05-02T15:42:47.785Z,54.18
2019-05-02T15:45:20.359Z,54.20
2019-05-02T15:47:52.610Z,54.11
2019-05-02T15:50:25.583Z,54.13
2019-05-02T15:53:09.778Z,54.14
2019-05-02T15:55:39.524Z,54.26
2019-05-02T15:58:22.581Z,54.30
2019-05-02T16:00:56.445Z,54.25
2019-05-02T16:03:27.759Z,54.25
2019-05-02T16:05:58.738Z,54.25
2019-05-02T16:08:32.572Z,54.08
2019-05-02T16:11:03.644Z,53.90
2019-05-02T16:13:34.627Z,53.94
2019-05-02T16:16:05.649Z,53.88
2019-05-02T16:18:40.935Z,53.84
2019-05-02T16:21:26.394Z,53.64
2019-05-02T16:24:12.075Z,53.65
2019-05-02T16:26:44.916Z,53.44
2019-05-02T16:29:19.499Z,53.51
2019-05-02T16:31:55.035Z,53.27
2019-05-02T16:34:27.375Z,53.21
2019-05-02T16:37:07.102Z,53.14
2019-05-02T16:39:37.486Z,53.08
2019-05-02T16:42:08.730Z,53.08
2019-05-02T16:44:39.732Z,53.08
2019-05-02T16:47:10.741Z,53.09
2019-05-02T16:49:41.979Z,52.90
2019-05-02T16:52:15.999Z,52.81
2019-05-02T16:54:46.408Z,52.83
2019-05-02T16:57:22.174Z,52.89
2019-05-02T16:59:53.895Z,52.90
2019-05-02T17:02:22.783Z,52.96
2019-05-02T17:04:54.914Z,52.92
2019-05-02T17:07:27.568Z,52.83
2019-05-02T17:10:03.263Z,52.85
2019-05-02T17:12:35.533Z,52.83
2019-05-02T17:15:31.055Z,52.91
2019-05-02T17:18:04.896Z,53.02
2019-05-02T17:20:35.034Z,53.11
2019-05-02T17:23:07.383Z,53.21
2019-05-02T17:25:38.873Z,53.21
2019-05-02T17:28:11.180Z,53.18
2019-05-02T17:30:43.071Z,53.30
2019-05-02T17:33:16.337Z,53.34
2019-05-02T17:35:51.553Z,53.40
2019-05-02T17:38:27.360Z,53.47
2019-05-02T17:40:54.343Z,53.48
2019-05-02T17:43:24.977Z,53.50
2019-05-02T17:45:56.381Z,53.45
2019-05-02T17:48:29.339Z,53.34
2019-05-02T17:51:04.579Z,53.32
2019-05-02T17:53:41.065Z,53.41
2019-05-02T17:56:12.991Z,53.46
2019-05-02T17:58:47.302Z,53.43
2019-05-02T18:01:18.414Z,53.45
2019-05-02T18:03:49.374Z,53.41
2019-05-02T18:06:30.804Z,53.54
2019-05-02T18:08:55.252Z,53.57
2019-05-02T18:11:29.574Z,53.52
2019-05-02T18:13:58.408Z,53.57
2019-05-02T18:16:29.409Z,53.63
2019-05-02T18:19:01.827Z,53.47
2019-05-02T18:21:32.994Z,53.39
2019-05-02T18:24:06.078Z,53.46
2019-05-02T18:26:37.901Z,53.55
2019-05-02T18:29:08.880Z,53.57
2019-05-02T18:31:47.143Z,53.68
2019-05-02T18:34:20.396Z,53.63
2019-05-02T18:36:46.298Z,53.75
2019-05-02T18:39:17.269Z,53.81
2019-05-02T18:41:48.412Z,53.06
2019-05-02T18:44:19.390Z,52.68
2019-05-02T18:46:51.919Z,52.52
2019-05-02T18:49:23.463Z,52.44
2019-05-02T18:51:57.338Z,52.26
2019-05-02T18:54:27.536Z,52.19
2019-05-02T18:56:58.494Z,52.20
2019-05-02T18:59:29.460Z,52.35
2019-05-02T19:02:02.156Z,52.44
2019-05-02T19:04:38.239Z,52.48
2019-05-02T19:07:07.591Z,52.55
2019-05-02T19:09:48.394Z,52.52
2019-05-02T19:12:19.422Z,52.55
2019-05-02T19:14:44.201Z,52.59
2019-05-02T19:17:15.176Z,52.48
2019-05-02T19:19:46.168Z,52.59
2019-05-02T19:22:17.207Z,52.58
2019-05-02T19:24:48.544Z,52.69
2019-05-02T19:27:25.223Z,52.76
2019-05-02T19:29:54.682Z,52.92
2019-05-02T19:32:28.351Z,53.35
2019-05-02T19:35:03.238Z,53.29
2019-05-02T19:37:31.626Z,53.24
2019-05-02T19:40:02.900Z,53.39
2019-05-02T19:42:33.853Z,53.42
2019-05-02T19:45:11.399Z,53.47
2019-05-02T19:47:38.921Z,53.47
2019-05-02T19:50:40.321Z,53.55
2019-05-02T19:53:14.822Z,53.58
2019-05-02T19:55:38.961Z,53.60
2019-05-02T19:58:09.927Z,53.65
2019-05-02T20:00:42.351Z,53.50
2019-05-02T20:03:21.557Z,53.65
2019-05-02T20:05:48.495Z,53.66
2019-05-02T20:08:22.837Z,53.65
2019-05-02T20:10:56.735Z,53.70
2019-05-02T20:13:28.115Z,53.79
2019-05-02T20:16:11.867Z,53.81
2019-05-02T20:18:47.135Z,53.61
2019-05-02T20:21:26.866Z,53.50
2019-05-02T20:23:52.819Z,53.38
2019-05-02T20:26:23.859Z,53.19
2019-05-02T20:28:54.822Z,53.06
2019-05-02T20:31:25.809Z,52.84
2019-05-02T20:33:56.777Z,52.82
2019-05-02T20:36:27.778Z,52.71
2019-05-02T20:38:58.765Z,52.66
2019-05-02T20:41:29.900Z,52.80
2019-05-02T20:44:02.631Z,52.89
2019-05-02T20:46:33.725Z,52.91
2019-05-02T20:49:04.714Z,52.86
2019-05-02T20:51:35.685Z,52.54
2019-05-02T20:54:06.688Z,52.42
2019-05-02T20:56:37.667Z,52.28
2019-05-02T20:59:08.643Z,52.25
2019-05-02T21:01:39.612Z,52.21
2019-05-02T21:04:12.077Z,52.27
2019-05-02T21:06:44.782Z,52.14
2019-05-02T21:09:17.380Z,51.92
2019-05-02T21:11:50.015Z,51.86
2019-05-02T21:14:21.680Z,51.71
2019-05-02T21:16:52.637Z,51.69
2019-05-02T21:19:23.627Z,51.72
2019-05-02T21:21:55.134Z,51.56
2019-05-02T21:24:26.210Z,51.42
2019-05-02T21:26:57.243Z,51.63
2019-05-02T21:29:28.242Z,51.61
2019-05-02T21:31:59.204Z,51.61
2019-05-02T21:34:31.848Z,51.54
2019-05-02T21:37:02.856Z,51.63
2019-05-02T21:39:34.898Z,51.58
2019-05-02T21:42:05.871Z,51.58
2019-05-02T21:44:36.845Z,51.62
2019-05-02T21:47:07.819Z,51.62
2019-05-02T21:49:43.282Z,51.62
2019-05-02T21:52:15.979Z,51.72
2019-05-02T21:54:54.354Z,51.73
2019-05-02T21:57:25.324Z,51.75
2019-05-02T21:59:56.286Z,51.83
2019-05-02T22:02:27.324Z,51.87
2019-05-02T22:04:58.293Z,51.92
2019-05-02T22:07:29.260Z,51.88
2019-05-02T22:10:00.294Z,51.88
2019-05-02T22:12:31.778Z,51.90
2019-05-02T22:15:02.849Z,51.83
2019-05-02T22:17:33.798Z,51.78
2019-05-02T22:20:06.708Z,51.79
2019-05-02T22:22:37.681Z,51.87
2019-05-02T22:25:08.645Z,51.83
2019-05-02T22:27:39.628Z,51.86
2019-05-02T22:30:12.568Z,51.93
2019-05-02T22:32:43.534Z,51.98
2019-05-02T22:35:14.742Z,51.93
2019-05-02T22:37:47.381Z,51.99
2019-05-02T22:40:18.722Z,51.95
2019-05-02T22:42:49.707Z,51.98
2019-05-02T22:45:21.796Z,51.97
2019-05-02T22:47:52.850Z,52.13
2019-05-02T22:50:23.912Z,52.03
2019-05-02T22:52:54.902Z,52.04
2019-05-02T22:55:25.904Z,52.04
2019-05-02T22:57:56.854Z,52.06
2019-05-02T23:00:28.017Z,52.01
2019-05-02T23:02:58.986Z,52.09
2019-05-02T23:05:29.967Z,52.11
2019-05-02T23:08:02.292Z,52.12
2019-05-02T23:10:33.402Z,52.15
2019-05-02T23:13:04.403Z,52.07
2019-05-02T23:15:35.406Z,52.03
2019-05-02T23:18:06.438Z,52.07
2019-05-02T23:20:37.498Z,52.01
2019-05-02T23:23:08.451Z,52.15
2019-05-02T23:25:53.404Z,52.06
2019-05-02T23:28:32.008Z,52.05
2019-05-02T23:31:03.043Z,52.08
2019-05-02T23:33:52.896Z,52.08
2019-05-02T23:36:23.871Z,52.07
2019-05-02T23:38:54.866Z,52.18
2019-05-02T23:41:25.852Z,52.12
2019-05-02T23:43:56.843Z,52.05
2019-05-02T23:46:27.848Z,52.12
2019-05-02T23:48:58.837Z,52.14
2019-05-02T23:51:31.897Z,52.14
2019-05-02T23:54:02.676Z,52.11
2019-05-02T23:56:33.648Z,52.07
2019-05-02T23:59:04.657Z,52.09
